Time;durP1;ratioP1;P1;durP2;ratioP2;P2;SDS_P1;SDS_P2;PMS_P1;PMS_P2;Temp;Humidity;BMP_temperature;BMP_pressure;BME280_temperature;BME280_humidity;BME280_pressure;Samples;Min_cycle;Max_cycle;Signal;HPM_P1;HPM_P2
2024/02/12 00:02:18;;;;;;;0.20;0.15;;;11.00;74.70;;;;;;5070282;28;20052;-70
2024/02/12 00:05:06;;;;;;;0.10;0.10;;;11.00;74.90;;;;;;5072187;28;20037;-70
2024/02/12 00:07:32;;;;;;;;;;;11.00;74.80;;;;;;5071697;28;20037;-70
2024/02/12 00:10:05;;;;;;;0.10;0.10;;;11.00;74.70;;;;;;5072145;28;20270;-69
2024/02/12 00:12:32;;;;;;;0.20;0.17;;;11.00;74.60;;;;;;5071893;28;20036;-70
2024/02/12 00:15:01;;;;;;;0.10;0.10;;;11.00;74.70;;;;;;5072010;28;20481;-70
2024/02/12 00:17:31;;;;;;;0.10;0.10;;;10.90;74.90;;;;;;5071946;28;20103;-70
2024/02/12 00:19:57;;;;;;;0.10;0.10;;;10.90;74.80;;;;;;5071758;28;20081;-69
2024/02/12 00:22:23;;;;;;;0.15;0.15;;;10.90;74.70;;;;;;5071600;28;20041;-70
2024/02/12 00:25:11;;;;;;;0.00;0.00;;;10.90;74.80;;;;;;5071847;28;20028;-69
2024/02/12 00:27:56;;;;;;;0.10;0.10;;;10.90;73.90;;;;;;5053811;28;20483;-70
2024/02/12 00:30:22;;;;;;;0.10;0.10;;;10.90;74.30;;;;;;5053698;28;20052;-70
2024/02/12 00:32:49;;;;;;;0.10;0.10;;;10.80;74.30;;;;;;5070437;28;20048;-70
2024/02/12 00:35:15;;;;;;;;;;;10.80;74.50;;;;;;5072413;28;20024;-70
2024/02/12 00:37:42;;;;;;;0.37;0.30;;;10.80;74.30;;;;;;5070422;28;20426;-70
2024/02/12 00:40:09;;;;;;;0.10;0.10;;;10.80;74.20;;;;;;5071346;28;20475;-70
2024/02/12 00:42:36;;;;;;;0.10;0.10;;;10.80;74.40;;;;;;5070494;28;20039;-70
2024/02/12 00:45:03;;;;;;;0.10;0.10;;;10.80;74.00;;;;;;5070517;28;20051;-69
2024/02/12 00:47:29;;;;;;;0.52;0.47;;;10.80;73.90;;;;;;5071588;28;20051;-69
2024/02/12 00:49:55;;;;;;;0.20;0.20;;;10.80;73.90;;;;;;5071447;28;20054;-70
2024/02/12 00:52:23;;;;;;;1.65;0.60;;;10.80;74.60;;;;;;5069488;28;20052;-70
2024/02/12 00:54:52;;;;;;;0.10;0.10;;;10.80;74.40;;;;;;5070121;28;20107;-70
2024/02/12 00:57:23;;;;;;;0.17;0.17;;;10.70;74.00;;;;;;5070253;28;20051;-70
2024/02/12 00:59:49;;;;;;;0.70;0.30;;;10.70;73.90;;;;;;5071603;28;20036;-70
2024/02/12 01:02:15;;;;;;;;;;;10.70;73.90;;;;;;5069831;28;20060;-70
2024/02/12 01:04:41;;;;;;;0.52;0.45;;;10.70;74.40;;;;;;5070437;28;20484;-70
2024/02/12 01:07:07;;;;;;;0.43;0.40;;;10.70;74.60;;;;;;5070055;28;20040;-70
2024/02/12 01:09:33;;;;;;;0.10;0.10;;;10.70;74.90;;;;;;5070089;28;20070;-70
2024/02/12 01:11:59;;;;;;;0.10;0.10;;;10.70;75.10;;;;;;5070821;28;20489;-70
2024/02/12 01:14:26;;;;;;;;;;;10.60;75.40;;;;;;5072096;28;20112;-69
2024/02/12 01:16:53;;;;;;;0.52;0.52;;;10.60;75.40;;;;;;5069878;28;20428;-69
2024/02/12 01:19:19;;;;;;;0.75;0.30;;;10.60;75.70;;;;;;5052886;28;20511;-69
2024/02/12 01:21:45;;;;;;;0.47;0.13;;;10.60;76.10;;;;;;5068928;28;20072;-70
2024/02/12 01:24:14;;;;;;;0.10;0.10;;;10.60;76.10;;;;;;5070948;28;20039;-70
2024/02/12 01:26:41;;;;;;;0.20;0.20;;;10.60;76.00;;;;;;5069446;28;20036;-69
2024/02/12 01:29:07;;;;;;;0.10;0.10;;;10.60;76.20;;;;;;5070918;28;20029;-69
2024/02/12 01:31:37;;;;;;;0.10;0.10;;;10.50;76.00;;;;;;5068979;28;20041;-70
2024/02/12 01:34:04;;;;;;;0.00;0.00;;;10.50;77.10;;;;;;5070839;28;20626;-70
2024/02/12 01:36:31;;;;;;;0.10;0.10;;;10.40;77.20;;;;;;5069484;28;20482;-70
2024/02/12 01:38:58;;;;;;;0.08;0.08;;;10.40;77.00;;;;;;5052587;28;20058;-70
2024/02/12 01:41:24;;;;;;;;;;;10.30;77.60;;;;;;5071094;28;20029;-69
2024/02/12 01:43:51;;;;;;;0.10;0.10;;;10.20;77.80;;;;;;5069451;28;19924;-70
2024/02/12 01:46:19;;;;;;;0.57;0.20;;;10.20;78.10;;;;;;5069387;28;20115;-70
2024/02/12 01:48:46;;;;;;;0.32;0.32;;;10.10;78.60;;;;;;5069375;28;20404;-70
2024/02/12 01:51:13;;;;;;;0.10;0.10;;;10.10;79.10;;;;;;5068913;28;20044;-70
2024/02/12 01:53:42;;;;;;;0.03;0.03;;;10.10;79.20;;;;;;5070480;28;20029;-70
2024/02/12 01:56:10;;;;;;;0.20;0.20;;;10.10;79.10;;;;;;5069497;28;20029;-70
2024/02/12 01:58:57;;;;;;;0.25;0.22;;;10.10;79.10;;;;;;5069469;28;20150;-70
2024/02/12 02:01:23;;;;;;;;;;;10.10;79.20;;;;;;5070889;28;20132;-70
2024/02/12 02:03:50;;;;;;;0.20;0.20;;;10.10;79.00;;;;;;5069348;28;19920;-70
2024/02/12 02:06:16;;;;;;;0.15;0.10;;;10.00;78.90;;;;;;5052798;28;20576;-70
2024/02/12 02:08:44;;;;;;;0.10;0.10;;;10.10;78.90;;;;;;5069227;28;20559;-70
2024/02/12 02:11:11;;;;;;;0.10;0.10;;;10.10;78.80;;;;;;5072416;28;20040;-70
2024/02/12 02:13:56;;;;;;;0.57;0.38;;;10.10;78.50;;;;;;5068585;28;20037;-69
2024/02/12 02:16:22;;;;;;;0.10;0.10;;;10.20;78.70;;;;;;5069365;28;20068;-69
2024/02/12 02:18:50;;;;;;;1.88;0.35;;;10.10;78.50;;;;;;5069022;28;20032;-69
2024/02/12 02:21:18;;;;;;;0.10;0.10;;;10.10;78.40;;;;;;5050947;28;20040;-69
2024/02/12 02:23:44;;;;;;;0.10;0.10;;;10.10;78.50;;;;;;5068937;28;20032;-70
2024/02/12 02:26:10;;;;;;;0.10;0.10;;;10.10;78.70;;;;;;5070436;28;20067;-69
2024/02/12 02:28:36;;;;;;;0.10;0.10;;;10.10;78.70;;;;;;5070035;28;20036;-69
2024/02/12 02:31:02;;;;;;;0.10;0.10;;;10.10;78.70;;;;;;5072720;28;20036;-70
2024/02/12 02:33:29;;;;;;;0.55;0.55;;;10.10;78.70;;;;;;5074559;28;20040;-70
2024/02/12 02:35:55;;;;;;;0.10;0.10;;;10.10;78.80;;;;;;5073905;28;20036;-70
2024/02/12 02:38:22;;;;;;;0.40;0.38;;;10.10;78.70;;;;;;5072553;28;20040;-70
2024/02/12 02:40:48;;;;;;;0.10;0.10;;;10.10;78.50;;;;;;5071994;28;20083;-70
2024/02/12 02:43:17;;;;;;;0.20;0.10;;;10.10;78.40;;;;;;5072558;28;20047;-70
2024/02/12 02:45:43;;;;;;;0.65;0.65;;;10.10;78.40;;;;;;5072557;28;20128;-70
2024/02/12 02:48:09;;;;;;;1.45;0.90;;;10.10;78.30;;;;;;5072433;28;20044;-70
2024/02/12 02:50:36;;;;;;;1.23;0.75;;;10.10;78.10;;;;;;5073087;28;20040;-70
2024/02/12 02:53:02;;;;;;;0.80;0.68;;;10.10;78.10;;;;;;5073717;28;20076;-69
2024/02/12 02:55:29;;;;;;;3.45;2.33;;;10.00;77.80;;;;;;5073638;28;20093;-70
2024/02/12 02:57:56;;;;;;;1.00;0.47;;;10.00;77.80;;;;;;5088508;28;20531;-70
2024/02/12 03:00:25;;;;;;;0.20;0.20;;;10.00;77.60;;;;;;5071771;28;20033;-70
2024/02/12 03:02:52;;;;;;;0.10;0.10;;;10.00;77.80;;;;;;5073185;28;20064;-69
2024/02/12 03:05:18;;;;;;;0.10;0.10;;;10.00;77.60;;;;;;5072268;28;20020;-70
2024/02/12 03:07:47;;;;;;;0.10;0.10;;;10.00;77.90;;;;;;5073362;28;20068;-70
2024/02/12 03:10:16;;;;;;;0.20;0.10;;;10.00;77.70;;;;;;5071586;28;20147;-70
2024/02/12 03:12:45;;;;;;;0.10;0.08;;;9.90;77.60;;;;;;5073330;28;20044;-70
2024/02/12 03:15:14;;;;;;;1.30;0.90;;;10.00;77.70;;;;;;5072206;28;20036;-70
2024/02/12 03:17:42;;;;;;;2.35;1.17;;;10.00;77.70;;;;;;5071955;28;20037;-70
2024/02/12 03:20:10;;;;;;;0.15;0.15;;;10.00;77.60;;;;;;5072709;28;20108;-70
2024/02/12 03:22:56;;;;;;;0.00;0.00;;;10.00;77.50;;;;;;5073300;28;20036;-70
2024/02/12 03:25:22;;;;;;;0.10;0.10;;;10.00;77.30;;;;;;5073035;28;20029;-70
2024/02/12 03:27:48;;;;;;;1.15;0.35;;;10.00;77.30;;;;;;5072975;28;20045;-70
2024/02/12 03:30:15;;;;;;;0.10;0.10;;;9.90;77.30;;;;;;5071192;28;20056;-70
2024/02/12 03:32:42;;;;;;;0.10;0.10;;;9.90;77.20;;;;;;5072925;28;20564;-70
2024/02/12 03:35:08;;;;;;;;;;;9.90;77.30;;;;;;5072034;28;20041;-69
2024/02/12 03:37:34;;;;;;;0.10;0.10;;;9.90;76.60;;;;;;5088087;28;20381;-70
2024/02/12 03:40:00;;;;;;;0.60;0.40;;;9.90;77.30;;;;;;5087919;28;20028;-69
2024/02/12 03:42:27;;;;;;;1.50;0.95;;;9.90;77.30;;;;;;5071844;28;20063;-70
2024/02/12 03:44:54;;;;;;;2.38;1.52;;;9.80;76.50;;;;;;5072741;28;20035;-69
2024/02/12 03:47:39;;;;;;;1.75;1.20;;;9.80;77.00;;;;;;5071025;28;20036;-70
2024/02/12 04:01:26;;;;;;;0.82;0.65;;;9.80;76.00;;;;;;5070780;28;20106;-70
2024/02/12 04:03:52;;;;;;;2.45;0.77;;;9.80;76.60;;;;;;5070852;28;20441;-70
2024/02/12 04:06:19;;;;;;;0.60;0.40;;;9.80;76.50;;;;;;5070807;28;20032;-70
2024/02/12 04:08:47;;;;;;;1.52;0.85;;;9.80;76.20;;;;;;5072373;28;20072;-70
2024/02/12 04:11:13;;;;;;;0.40;0.30;;;9.80;76.50;;;;;;5071471;28;20484;-70
2024/02/12 04:13:40;;;;;;;1.70;0.88;;;9.80;76.50;;;;;;5087087;28;20036;-70
2024/02/12 04:16:09;;;;;;;;;;;9.80;76.50;;;;;;5091115;28;20448;-70
2024/02/12 04:18:35;;;;;;;1.30;0.47;;;9.80;76.20;;;;;;5073902;28;19986;-70
2024/02/12 04:23:49;;;;;;;0.40;0.40;;;9.80;76.20;;;;;;5070368;28;20365;-70
2024/02/12 04:26:15;;;;;;;0.10;0.10;;;9.80;76.20;;;;;;5071473;28;20024;-70
2024/02/12 04:28:43;;;;;;;0.38;0.25;;;9.80;75.60;;;;;;5071510;28;20108;-70
2024/02/12 04:31:11;;;;;;;0.32;0.30;;;9.80;76.20;;;;;;5071151;28;20276;-70
2024/02/12 04:33:39;;;;;;;1.70;1.60;;;9.80;76.10;;;;;;5087000;28;20041;-70
2024/02/12 04:36:08;;;;;;;0.15;0.15;;;9.70;75.90;;;;;;5071738;28;20025;-70
2024/02/12 04:38:34;;;;;;;0.25;0.10;;;9.80;75.90;;;;;;5070273;28;20236;-70
2024/02/12 04:41:01;;;;;;;0.10;0.10;;;9.70;75.90;;;;;;5069809;28;20385;-70
2024/02/12 04:43:28;;;;;;;0.63;0.40;;;9.80;76.80;;;;;;5070566;28;20486;-70
2024/02/12 04:45:57;;;;;;;0.13;0.13;;;9.80;76.00;;;;;;5072101;28;20032;-70
2024/02/12 04:48:23;;;;;;;0.47;0.45;;;9.80;76.00;;;;;;5071853;28;20040;-70
2024/02/12 04:50:49;;;;;;;0.13;0.13;;;9.80;76.00;;;;;;5069622;28;20074;-70
2024/02/12 04:53:15;;;;;;;0.10;0.10;;;9.80;76.00;;;;;;5069519;28;20036;-70
2024/02/12 04:55:41;;;;;;;;;;;9.80;75.90;;;;;;5071841;28;20035;-70
2024/02/12 04:58:07;;;;;;;0.17;0.10;;;9.80;75.80;;;;;;5053005;28;19924;-70
2024/02/12 05:00:34;;;;;;;0.10;0.10;;;9.80;75.60;;;;;;5070894;28;20041;-70
2024/02/12 05:02:59;;;;;;;;;;;9.80;75.70;;;;;;5070357;28;20049;-70
2024/02/12 05:05:27;;;;;;;0.47;0.28;;;9.80;75.80;;;;;;5053322;28;19920;-70
2024/02/12 05:07:53;;;;;;;0.20;0.20;;;9.70;75.80;;;;;;5069651;28;20041;-70
2024/02/12 05:10:20;;;;;;;0.10;0.10;;;9.80;75.80;;;;;;5069240;28;20040;-70
2024/02/12 05:12:47;;;;;;;0.77;0.38;;;9.80;75.80;;;;;;5069920;28;20732;-70
2024/02/12 05:15:13;;;;;;;0.10;0.10;;;9.70;75.50;;;;;;5053015;28;20166;-70
2024/02/12 05:23:16;;;;;;;1.27;0.90;;;9.80;75.40;;;;;;5069966;28;20401;-70
2024/02/12 05:25:44;;;;;;;0.75;0.55;;;9.80;75.30;;;;;;5069604;28;20060;-69
2024/02/12 05:28:10;;;;;;;0.45;0.32;;;9.70;75.60;;;;;;5070911;28;20029;-70
2024/02/12 05:30:36;;;;;;;;;;;9.70;75.50;;;;;;5071029;28;20040;-70
2024/02/12 05:33:06;;;;;;;0.70;0.55;;;9.70;75.60;;;;;;5069504;28;20008;-70
2024/02/12 05:35:32;;;;;;;0.38;0.30;;;9.70;74.90;;;;;;5070779;28;20469;-70
2024/02/12 05:37:58;;;;;;;;;;;9.70;76.40;;;;;;5069732;28;20443;-70
2024/02/12 05:40:24;;;;;;;2.40;0.95;;;9.70;75.60;;;;;;5069178;28;20027;-70
2024/02/12 05:42:50;;;;;;;0.20;0.20;;;9.70;75.40;;;;;;5069554;28;20059;-70
2024/02/12 05:45:16;;;;;;;0.43;0.20;;;9.70;75.40;;;;;;5086511;28;20033;-70
2024/02/12 05:47:42;;;;;;;0.35;0.35;;;9.70;75.40;;;;;;5070761;28;20043;-70
2024/02/12 05:50:09;;;;;;;0.15;0.10;;;9.70;75.30;;;;;;5085948;28;20397;-70
2024/02/12 05:52:36;;;;;;;1.55;0.73;;;9.70;75.20;;;;;;5070971;28;20033;-70
2024/02/12 05:55:03;;;;;;;0.30;0.22;;;9.80;75.00;;;;;;5069793;28;20029;-70
2024/02/12 05:57:29;;;;;;;4.95;1.45;;;9.70;74.60;;;;;;5069036;28;20389;-70
2024/02/12 05:59:55;;;;;;;0.73;0.57;;;9.80;75.10;;;;;;5070743;28;20020;-70
2024/02/12 06:02:21;;;;;;;0.32;0.32;;;9.70;75.10;;;;;;5068490;28;20060;-70
2024/02/12 06:04:47;;;;;;;0.70;0.35;;;9.70;75.30;;;;;;5073140;28;20435;-70
2024/02/12 06:07:13;;;;;;;1.17;0.70;;;9.70;75.20;;;;;;5074347;28;20045;-70
2024/02/12 06:09:39;;;;;;;1.65;0.55;;;9.80;75.20;;;;;;5073011;28;20071;-70
2024/02/12 06:12:07;;;;;;;0.70;0.45;;;9.80;75.10;;;;;;5072221;28;20048;-70
2024/02/12 06:14:33;;;;;;;0.95;0.55;;;9.80;74.40;;;;;;5074201;28;20082;-70
2024/02/12 06:16:59;;;;;;;1.45;0.90;;;9.80;75.00;;;;;;5074156;28;20049;-70
2024/02/12 06:19:26;;;;;;;0.10;0.10;;;9.80;75.10;;;;;;5072866;28;20028;-70
2024/02/12 06:21:51;;;;;;;;;;;9.80;75.00;;;;;;5072604;28;20512;-70
2024/02/12 06:24:17;;;;;;;0.47;0.40;;;9.80;75.00;;;;;;5074067;28;20016;-70
2024/02/12 06:26:43;;;;;;;0.10;0.10;;;9.80;75.00;;;;;;5073869;28;20090;-69
2024/02/12 06:29:10;;;;;;;0.10;0.10;;;9.70;75.10;;;;;;5073932;28;20456;-70
2024/02/12 06:31:55;;;;;;;0.10;0.10;;;9.80;75.00;;;;;;5073290;28;20044;-70
2024/02/12 06:34:23;;;;;;;1.15;0.75;;;9.80;75.20;;;;;;5073757;28;20036;-70
2024/02/12 06:36:49;;;;;;;0.50;0.25;;;9.70;75.30;;;;;;5072329;28;20055;-70
2024/02/12 06:39:16;;;;;;;0.35;0.20;;;9.70;75.60;;;;;;5072418;28;20028;-70
2024/02/12 06:41:44;;;;;;;0.10;0.10;;;9.70;75.70;;;;;;5071720;28;20485;-70
2024/02/12 06:44:13;;;;;;;2.28;1.02;;;9.70;75.60;;;;;;5073731;28;20025;-70
2024/02/12 06:46:43;;;;;;;0.10;0.10;;;9.70;75.70;;;;;;5072458;28;20040;-70
2024/02/12 06:49:10;;;;;;;0.10;0.10;;;9.70;75.70;;;;;;5073804;28;20078;-70
2024/02/12 06:51:57;;;;;;;;;;;9.70;75.70;;;;;;5072330;28;20558;-70
2024/02/12 06:54:23;;;;;;;0.28;0.20;;;9.70;75.60;;;;;;5072312;28;20436;-70
2024/02/12 06:56:50;;;;;;;0.10;0.10;;;9.60;75.80;;;;;;5072370;28;20037;-70
2024/02/12 06:59:16;;;;;;;0.15;0.13;;;9.60;75.90;;;;;;5073393;28;20485;-70
2024/02/12 07:01:42;;;;;;;0.10;0.10;;;9.60;76.20;;;;;;5072591;28;20045;-70
2024/02/12 07:04:09;;;;;;;0.10;0.10;;;9.60;76.40;;;;;;5072288;28;20044;-70
2024/02/12 07:06:36;;;;;;;0.30;0.30;;;9.60;76.40;;;;;;5073219;28;20041;-70
2024/02/12 07:09:02;;;;;;;0.10;0.10;;;9.70;76.50;;;;;;5072897;28;20039;-70
2024/02/12 07:11:28;;;;;;;0.10;0.10;;;9.70;76.50;;;;;;5072767;28;20098;-70
2024/02/12 07:13:54;;;;;;;0.28;0.28;;;9.70;76.10;;;;;;5071783;28;20028;-70
2024/02/12 07:16:22;;;;;;;2.25;0.65;;;9.80;76.10;;;;;;5072223;28;20037;-70
2024/02/12 07:18:48;;;;;;;1.90;1.67;;;9.80;76.00;;;;;;5071717;28;20056;-70
2024/02/12 07:21:15;;;;;;;1.75;0.73;;;9.80;75.90;;;;;;5071070;28;20135;-70
2024/02/12 07:23:41;;;;;;;1.08;0.85;;;9.80;75.50;;;;;;5071817;28;20037;-70
2024/02/12 07:26:07;;;;;;;1.90;1.08;;;9.80;75.40;;;;;;5071651;28;20090;-70
2024/02/12 07:28:35;;;;;;;0.20;0.20;;;9.90;75.40;;;;;;5072920;28;20090;-70
2024/02/12 07:31:03;;;;;;;1.20;0.73;;;9.90;75.40;;;;;;5070879;28;20390;-70
2024/02/12 07:33:29;;;;;;;1.10;0.95;;;9.90;75.60;;;;;;5073014;28;20401;-70
2024/02/12 07:35:55;;;;;;;1.15;0.55;;;9.90;75.60;;;;;;5071469;28;20390;-70
2024/02/12 07:38:21;;;;;;;1.08;0.82;;;9.90;75.60;;;;;;5071325;28;20044;-70
2024/02/12 07:40:48;;;;;;;0.93;0.55;;;9.90;75.70;;;;;;5072034;28;20028;-70
2024/02/12 07:43:14;;;;;;;1.85;1.23;;;10.00;75.70;;;;;;5071273;28;20089;-70
2024/02/12 07:45:42;;;;;;;0.65;0.50;;;9.90;75.80;;;;;;5072596;28;20473;-70
2024/02/12 07:48:08;;;;;;;5.25;1.55;;;9.90;75.90;;;;;;5072535;28;20339;-70
2024/02/12 07:50:35;;;;;;;2.25;0.88;;;9.90;75.80;;;;;;5070681;28;20033;-70
2024/02/12 07:53:03;;;;;;;1.15;0.77;;;9.90;77.00;;;;;;5072516;28;20036;-70
2024/02/12 07:55:29;;;;;;;0.52;0.50;;;10.00;76.20;;;;;;5072336;28;20105;-70
2024/02/12 07:57:55;;;;;;;0.57;0.40;;;10.00;76.00;;;;;;5070569;28;20040;-70
2024/02/12 08:00:21;;;;;;;1.27;0.70;;;10.00;76.10;;;;;;5071755;28;20035;-70
2024/02/12 08:02:47;;;;;;;1.83;0.82;;;10.00;76.10;;;;;;5072021;28;20052;-70
2024/02/12 08:05:15;;;;;;;0.70;0.20;;;10.00;76.20;;;;;;5071121;28;20063;-70
2024/02/12 08:07:43;;;;;;;0.52;0.30;;;10.00;76.10;;;;;;5070767;28;20052;-69
2024/02/12 08:10:10;;;;;;;0.55;0.50;;;10.00;76.30;;;;;;5071163;28;20035;-70
2024/02/12 08:12:36;;;;;;;1.80;1.38;;;10.00;75.80;;;;;;5070839;28;20029;-70
2024/02/12 08:15:03;;;;;;;1.50;0.98;;;10.00;76.40;;;;;;5087768;28;20029;-70
2024/02/12 08:17:30;;;;;;;0.55;0.43;;;10.00;75.90;;;;;;5087393;28;20047;-70
2024/02/12 08:19:56;;;;;;;0.30;0.30;;;10.00;76.30;;;;;;5072103;28;20025;-70
2024/02/12 08:22:22;;;;;;;0.10;0.10;;;10.00;76.20;;;;;;5069859;28;20412;-70
2024/02/12 08:24:49;;;;;;;0.70;0.50;;;10.00;76.00;;;;;;5071926;28;20077;-70
2024/02/12 08:27:16;;;;;;;0.43;0.20;;;10.00;76.20;;;;;;5070239;28;20508;-69
2024/02/12 08:29:42;;;;;;;;;;;10.10;76.20;;;;;;5087834;28;20016;-69
2024/02/12 08:32:08;;;;;;;3.22;1.02;;;10.10;76.10;;;;;;5069483;28;19920;-70
2024/02/12 08:34:40;;;;;;;0.35;0.20;;;10.10;76.10;;;;;;5070703;28;20237;-70
2024/02/12 08:37:10;;;;;;;3.53;0.82;;;10.10;75.90;;;;;;5087031;28;20044;-70
2024/02/12 08:39:41;;;;;;;0.47;0.20;;;10.20;75.80;;;;;;5071580;28;20473;-70
2024/02/12 08:42:07;;;;;;;0.30;0.20;;;10.20;75.70;;;;;;5070791;28;20127;-70
2024/02/12 08:44:33;;;;;;;0.05;0.05;;;10.30;75.90;;;;;;5070287;28;20115;-70
2024/02/12 08:46:59;;;;;;;1.55;1.13;;;10.30;75.40;;;;;;5071384;28;20047;-70
2024/02/12 08:52:12;;;;;;;3.53;1.92;;;10.40;74.60;;;;;;5069569;28;19916;-70
2024/02/12 08:54:38;;;;;;;1.25;0.73;;;10.40;74.60;;;;;;5071293;28;20037;-70
2024/02/12 08:57:05;;;;;;;0.35;0.30;;;10.40;74.70;;;;;;5069747;28;20028;-70
2024/02/12 08:59:34;;;;;;;0.57;0.35;;;10.50;74.40;;;;;;5069973;28;20024;-70
2024/02/12 09:02:01;;;;;;;0.45;0.38;;;10.50;74.40;;;;;;5069069;28;20081;-70
2024/02/12 09:04:27;;;;;;;0.20;0.20;;;10.60;74.80;;;;;;5071240;28;20024;-70
2024/02/12 09:06:54;;;;;;;0.98;0.50;;;10.60;74.40;;;;;;5071078;28;20071;-70
2024/02/12 09:09:20;;;;;;;2.13;1.23;;;10.60;73.20;;;;;;5069510;28;20403;-70
2024/02/12 09:11:46;;;;;;;0.60;0.50;;;10.60;73.80;;;;;;5052227;28;20094;-70
2024/02/12 09:14:12;;;;;;;0.10;0.10;;;10.70;74.10;;;;;;5069808;28;20029;-71
2024/02/12 09:16:39;;;;;;;0.13;0.13;;;10.70;73.50;;;;;;5070966;28;20132;-70
2024/02/12 09:19:05;;;;;;;0.32;0.32;;;10.80;73.20;;;;;;5069668;28;20515;-70
2024/02/12 09:21:32;;;;;;;;;;;10.80;72.70;;;;;;5071047;28;20044;-70
2024/02/12 09:23:58;;;;;;;0.20;0.20;;;10.70;72.10;;;;;;5069687;28;20296;-70
2024/02/12 09:26:25;;;;;;;0.15;0.15;;;10.70;72.50;;;;;;5070900;28;20078;-70
2024/02/12 09:28:56;;;;;;;0.10;0.10;;;10.80;72.60;;;;;;5052878;28;20032;-71
2024/02/12 09:31:23;;;;;;;0.03;0.03;;;10.80;71.70;;;;;;5070647;28;20052;-71
2024/02/12 09:33:49;;;;;;;0.20;0.20;;;10.80;70.60;;;;;;5070718;28;20039;-71
2024/02/12 09:36:17;;;;;;;0.20;0.20;;;10.70;70.50;;;;;;5071316;28;20036;-71
2024/02/12 09:38:45;;;;;;;0.22;0.22;;;10.70;70.50;;;;;;5071464;28;20048;-70
2024/02/12 09:41:14;;;;;;;0.10;0.10;;;10.70;70.30;;;;;;5074661;28;20043;-70
2024/02/12 09:43:46;;;;;;;0.52;0.30;;;10.70;69.60;;;;;;5073572;28;20036;-71
2024/02/12 09:46:35;;;;;;;0.20;0.20;;;10.70;69.60;;;;;;5074832;28;20064;-71
2024/02/12 09:49:03;;;;;;;0.10;0.10;;;10.70;69.50;;;;;;5073405;28;20438;-71
2024/02/12 09:51:31;;;;;;;0.10;0.10;;;10.60;68.90;;;;;;5072946;28;20047;-69
2024/02/12 09:54:01;;;;;;;0.35;0.35;;;10.60;68.90;;;;;;5073477;28;20448;-70
2024/02/12 09:56:31;;;;;;;0.10;0.10;;;10.60;69.10;;;;;;5074657;28;20525;-71
2024/02/12 09:58:58;;;;;;;0.17;0.10;;;10.60;69.10;;;;;;5074046;28;20032;-70
2024/02/12 10:01:24;;;;;;;0.60;0.40;;;10.70;69.00;;;;;;5073861;28;20047;-71
2024/02/12 10:03:50;;;;;;;0.10;0.10;;;10.70;69.20;;;;;;5090115;28;20055;-70
2024/02/12 10:06:17;;;;;;;0.10;0.10;;;10.70;69.10;;;;;;5074333;28;20032;-71
2024/02/12 10:08:43;;;;;;;0.00;0.00;;;10.70;69.20;;;;;;5089778;28;20032;-71
2024/02/12 10:11:10;;;;;;;0.43;0.22;;;10.70;69.40;;;;;;5089186;28;20041;-70
2024/02/12 10:13:36;;;;;;;0.13;0.10;;;10.70;69.20;;;;;;5074547;28;20031;-71
2024/02/12 10:16:04;;;;;;;0.00;0.00;;;10.60;69.30;;;;;;5073061;28;20601;-71
2024/02/12 10:18:31;;;;;;;0.10;0.10;;;10.50;70.20;;;;;;5073183;28;20064;-71
2024/02/12 10:20:57;;;;;;;0.10;0.10;;;10.50;70.10;;;;;;5072143;28;20036;-70
2024/02/12 10:23:23;;;;;;;0.70;0.43;;;10.60;70.40;;;;;;5072955;28;20029;-71
2024/02/12 10:25:51;;;;;;;0.10;0.10;;;10.50;70.30;;;;;;5074000;28;20040;-71
2024/02/12 10:28:18;;;;;;;0.15;0.10;;;10.60;70.60;;;;;;5056021;28;20025;-70
2024/02/12 10:31:04;;;;;;;0.43;0.30;;;10.60;70.40;;;;;;5055357;28;20037;-70
2024/02/12 10:33:34;;;;;;;0.85;0.73;;;10.70;70.60;;;;;;5072715;28;20424;-71
2024/02/12 10:36:05;;;;;;;0.30;0.30;;;10.70;70.40;;;;;;5072572;28;20443;-70
2024/02/12 10:38:34;;;;;;;0.28;0.20;;;10.90;70.50;;;;;;5072346;28;20041;-71
2024/02/12 10:41:37;;;;;;;0.20;0.20;;;10.90;69.00;;;;;;5071887;28;20046;-71
2024/02/12 10:44:04;;;;;;;0.17;0.17;;;11.00;69.10;;;;;;5072296;28;20378;-71
2024/02/12 10:49:17;;;;;;;0.25;0.25;;;11.10;67.10;;;;;;5073855;28;20078;-70
2024/02/12 10:51:46;;;;;;;0.30;0.25;;;11.20;67.30;;;;;;5071760;28;20367;-70
2024/02/12 10:54:13;;;;;;;0.20;0.10;;;11.30;67.40;;;;;;5073479;28;20032;-70
2024/02/12 10:56:40;;;;;;;0.10;0.10;;;11.40;66.10;;;;;;5072115;28;20047;-70
2024/02/12 10:59:13;;;;;;;0.52;0.35;;;11.50;65.40;;;;;;5071984;28;20039;-71
2024/02/12 11:01:39;;;;;;;0.10;0.10;;;11.60;65.00;;;;;;5055101;28;20049;-71
2024/02/12 11:04:09;;;;;;;1.67;0.95;;;11.70;64.70;;;;;;5089126;28;20374;-71
2024/02/12 11:06:54;;;;;;;0.52;0.20;;;11.80;64.90;;;;;;5073282;28;20029;-71
2024/02/12 11:09:31;;;;;;;0.40;0.40;;;12.00;65.00;;;;;;5071812;28;20033;-71
2024/02/12 11:11:59;;;;;;;0.17;0.17;;;11.90;63.30;;;;;;5071125;28;20086;-71
2024/02/12 11:14:33;;;;;;;0.15;0.15;;;12.00;63.60;;;;;;5073014;28;20389;-71
2024/02/12 11:17:01;;;;;;;0.38;0.30;;;12.00;63.70;;;;;;5071872;28;21446;-71
2024/02/12 11:19:28;;;;;;;0.25;0.20;;;12.20;62.30;;;;;;5071989;28;20024;-71
2024/02/12 11:21:55;;;;;;;0.10;0.10;;;12.40;62.30;;;;;;5072350;28;20105;-70
2024/02/12 11:24:21;;;;;;;0.47;0.10;;;12.40;60.70;;;;;;5071706;28;20035;-71
2024/02/12 11:26:49;;;;;;;;;;;12.50;60.90;;;;;;5071988;28;20365;-71
2024/02/12 11:29:19;;;;;;;0.35;0.30;;;12.40;59.50;;;;;;5071973;28;20429;-71
2024/02/12 11:31:48;;;;;;;0.20;0.20;;;12.80;59.20;;;;;;5070767;28;20427;-71
2024/02/12 11:34:18;;;;;;;0.52;0.25;;;13.30;57.50;;;;;;5071652;28;20036;-71
2024/02/12 11:37:03;;;;;;;0.25;0.20;;;13.30;58.50;;;;;;5071154;28;20704;-71
2024/02/12 11:39:30;;;;;;;0.15;0.15;;;13.40;58.10;;;;;;5072624;28;20032;-71
2024/02/12 11:42:00;;;;;;;0.65;0.28;;;13.50;56.60;;;;;;5072119;28;20114;-71
2024/02/12 11:44:26;;;;;;;0.55;0.15;;;13.70;56.20;;;;;;5072563;28;20485;-71
2024/02/12 11:47:11;;;;;;;;;;;13.80;57.10;;;;;;5071670;28;20033;-71
2024/02/12 11:49:38;;;;;;;0.30;0.28;;;13.90;55.90;;;;;;5088094;28;19917;-71
2024/02/12 11:52:06;;;;;;;1.40;0.68;;;14.10;56.30;;;;;;5071949;28;20469;-71
2024/02/12 11:54:32;;;;;;;0.10;0.10;;;14.30;56.50;;;;;;5087914;28;20032;-71
2024/02/12 11:56:58;;;;;;;0.10;0.10;;;14.40;54.50;;;;;;5072178;28;20436;-71
2024/02/12 11:59:24;;;;;;;;;;;14.20;54.70;;;;;;5071309;28;20036;-71
2024/02/12 12:01:50;;;;;;;0.30;0.30;;;14.20;53.80;;;;;;5069984;28;20190;-71
2024/02/12 12:04:17;;;;;;;0.73;0.73;;;14.20;52.70;;;;;;5070855;28;20076;-71
2024/02/12 12:06:43;;;;;;;0.10;0.10;;;14.10;52.00;;;;;;5070751;28;20425;-71
2024/02/12 12:09:09;;;;;;;0.10;0.10;;;14.20;53.40;;;;;;5072004;28;20024;-71
2024/02/12 12:11:39;;;;;;;3.53;0.45;;;14.30;52.90;;;;;;5053499;28;20048;-71
2024/02/12 12:14:06;;;;;;;0.35;0.20;;;14.40;52.10;;;;;;5070738;28;20033;-71
2024/02/12 12:16:32;;;;;;;0.20;0.20;;;14.60;51.80;;;;;;5072048;28;20128;-71
2024/02/12 12:19:04;;;;;;;0.10;0.10;;;14.60;51.50;;;;;;5071589;28;20029;-71
2024/02/12 12:21:31;;;;;;;0.40;0.40;;;14.60;50.70;;;;;;5070384;28;20078;-71
2024/02/12 12:23:58;;;;;;;0.40;0.30;;;14.80;51.10;;;;;;5070560;28;20029;-71
2024/02/12 12:26:25;;;;;;;0.00;0.00;;;14.90;50.50;;;;;;5071997;28;20062;-71
2024/02/12 12:28:52;;;;;;;0.28;0.28;;;14.90;50.50;;;;;;5087179;28;20032;-71
2024/02/12 12:31:18;;;;;;;0.25;0.22;;;14.70;50.70;;;;;;5069981;28;20062;-71
2024/02/12 12:33:44;;;;;;;0.10;0.10;;;14.70;49.70;;;;;;5053565;28;20044;-71
2024/02/12 12:36:11;;;;;;;0.15;0.15;;;14.50;48.60;;;;;;5071759;28;20439;-71
2024/02/12 12:38:50;;;;;;;0.28;0.28;;;14.50;50.30;;;;;;5071697;28;20055;-71
2024/02/12 12:41:19;;;;;;;0.20;0.20;;;14.60;50.60;;;;;;5086597;28;20028;-71
2024/02/12 12:43:45;;;;;;;0.32;0.32;;;14.70;49.60;;;;;;5070422;28;20044;-71
2024/02/12 12:46:10;;;;;;;0.60;0.60;;;14.80;50.20;;;;;;5071457;28;20040;-71
2024/02/12 12:48:36;;;;;;;0.38;0.38;;;14.80;49.50;;;;;;5071632;28;20040;-71
2024/02/12 12:51:03;;;;;;;0.22;0.22;;;14.90;49.60;;;;;;5070887;28;20033;-71
2024/02/12 12:53:29;;;;;;;;;;;15.00;49.10;;;;;;5072286;28;20114;-71
2024/02/12 12:55:55;;;;;;;0.10;0.10;;;15.00;49.80;;;;;;5070212;28;19958;-71
2024/02/12 12:58:21;;;;;;;0.60;0.15;;;14.70;48.80;;;;;;5069921;28;20048;-71
2024/02/12 13:00:48;;;;;;;0.10;0.10;;;14.60;50.00;;;;;;5069524;28;20037;-71
2024/02/12 13:03:14;;;;;;;0.10;0.10;;;14.60;49.70;;;;;;5069903;28;20433;-71
2024/02/12 13:05:41;;;;;;;0.10;0.10;;;14.80;49.50;;;;;;5071228;28;20036;-71
2024/02/12 13:08:10;;;;;;;0.73;0.55;;;15.10;48.60;;;;;;5069926;28;20048;-71
2024/02/12 13:10:37;;;;;;;0.20;0.20;;;15.30;48.30;;;;;;5070528;28;20039;-71
2024/02/12 13:13:04;;;;;;;0.95;0.47;;;15.40;47.60;;;;;;5069414;28;20087;-71
2024/02/12 13:15:30;;;;;;;0.20;0.10;;;15.40;48.60;;;;;;5070835;28;20071;-71
2024/02/12 13:17:57;;;;;;;0.10;0.10;;;15.30;47.70;;;;;;5086528;28;20503;-71
2024/02/12 13:20:24;;;;;;;0.10;0.10;;;15.40;47.60;;;;;;5070517;28;20497;-71
2024/02/12 13:23:09;;;;;;;0.10;0.10;;;16.00;46.70;;;;;;5071205;28;20393;-71
2024/02/12 13:25:35;;;;;;;0.10;0.10;;;16.70;45.00;;;;;;5086853;28;20453;-71